EPGD

Details ICAO EPGD (GDN)
Name LECH WALESA
Region Poland
Timezone Europe/Warsaw (UTC+2.0)
Plans Departing 684
Arriving 703
Stats Elevation 489 ft / 149 m (AMSL)
Location 54.376167° 18.471884°
Runways 1
Magnetic Variation 5.521° E
Sunrise 2018-06-19 02:11:59 UTC / 2018-06-19 04:11:59 Local
Sunset 2018-06-19 19:25:25 UTC / 2018-06-19 21:25:25 Local
Advertisement - Login to hide

Runways

ID Width Length Bearing (true) Bearing (mag) Surface Threshold Offset Overrun Length
11 148 ft / 45 m 9,158 ft / 2,791 m 112.96° 107.44° Asphalt 0 ft / 0 m 0 ft / 0 m
29 148 ft / 45 m 9,158 ft / 2,791 m 293.00° 287.48° Asphalt 0 ft / 0 m 0 ft / 0 m

Approach Navaids

Runway Type Ident Frequency Range Bearing (true) Bearing (mag) Slope Elevation
29 Localiser IGDA 110.30 MHz 18 nm / 33 km 292.96° 287.44° - 489 ft / 149 m (AMSL)
29 Glidescope IGDA 110.30 MHz 10 nm / 19 km 292.98° 287.46° 2.90° 489 ft / 149 m (AMSL)
29 DME IGDA 110.30 MHz 18 nm / 33 km - - - 492 ft / 150 m (AMSL)

Map

Weather


0- 5 10 15 20 25 30 35+ Temperature / ° C

Clouds and Precipitation
Forecast for 2018-06-19 12:00 UTC. Updated 3 hours ago

Ground ~20,000 ft ~40,000 ft Winds

METAR

EPGD 191200Z 28019G30KT 9999 SCT045 23/10 Q1017

TAF

TAF TAF EPGD 191130Z 1912/2012 27016KT CAVOK BECMG 1921/1924 27006KT

Frequencies

Recorded 129.62 MHz ATIS
Approach 130.87 MHz GDANSK APP
Tower 118.10 MHz GDANSK TWR
Warning: Do not use this data for real-world aviation or navigation. No guarantee of current accuracy is given.